Laughlin Air Force Base, TX

6:34 AM CST on December 22, 2014 (GMT -0600)
San Felipe | Change Station
CLOSE
Current Station
Personal Weather Station
Location: Del Rio, TX
Elevation: 942 ft
Nearby Weather Stations

Elev 942 ft 29.35 °N, 100.88 °W | Updated 1 second ago

Fog
Fog
53.2 °F
Feels Like 53.2 °F
N
2.3
Wind Variable Wind from SW
Gusts 0.0 mph

Today
High -- | Low -- °F
--% Chance of Precip.
Yesterday
High -- | Low -- °F
Precip. -- in
7:33 AM 5:49 PM
New Moon, 0% visible
Pressure 29.78 in
Visibility 1.5 miles
Clouds Overcast 200 ft
Dew Point 49 °F
Humidity 85%
Rainfall 0.00 in
Snow Depth Not available.
UV 0 out of 12
Pollen 8.80 out of 12
Air Quality Not available.
Flu Activity Not available.
SPECI KDRT 221223Z AUTO 00000KT 1 1/2SM BR OVC002 12/12 A2978 RMK AO2 T01170117

More Conditions Fewer Conditions

Pressure 29.78 in
Visibility 1.5 miles
Clouds Overcast 200 ft
Dew Point 49 °F
Humidity 85%
Rainfall 0.00 in
Snow Depth Not available.
UV 0 out of 12
Pollen 8.80 out of 12
Air Quality Not available.
Flu Activity Not available.
SPECI KDRT 221223Z AUTO 00000KT 1 1/2SM BR OVC002 12/12 A2978 RMK AO2 T01170117

More Conditions Fewer Conditions

10-Day Weather Forecast

Almanac

Astronomy

Dec. 22, 2014 Rise Set
Actual Time
Civil Twilight
Nautical Twilight
Astronomical Twilight
Moon
Length of Visible Light
Length of Day
Tomorrow will be .
, % of the Moon is Illuminated

Today's Extremes

State Highs State Lows

Community

WunderPhotos

Upload Photos

1,779,598 photos uploaded!

WunderBlogs® & News

Nearby

Air Quality

  Air Quality AQ Index Pollutant
Not available.

Snow Depth

Station Depth Elevation

Earthquake Activity

City Distance Mag. Time & Date
Minimum magnitude displayed is 2.5.

Coastal Water Temperatures

Place Temperature

Nearby Weather Stations